sensor_id;sensor_type;location;lat;lon;timestamp;P1;durP1;ratioP1;P2;durP2;ratioP2
27383;SDS011;14851;51.166;4.760;2023-02-20T00:02:00;18.50;;;13.25;;
27383;SDS011;14851;51.166;4.760;2023-02-20T00:04:26;17.05;;;13.45;;
27383;SDS011;14851;51.166;4.760;2023-02-20T00:06:52;18.27;;;13.05;;
27383;SDS011;14851;51.166;4.760;2023-02-20T00:09:18;20.02;;;13.35;;
27383;SDS011;14851;51.166;4.760;2023-02-20T00:11:47;18.23;;;12.55;;
27383;SDS011;14851;51.166;4.760;2023-02-20T00:14:12;16.38;;;13.15;;
27383;SDS011;14851;51.166;4.760;2023-02-20T00:16:41;20.33;;;13.90;;
27383;SDS011;14851;51.166;4.760;2023-02-20T00:19:11;19.77;;;14.18;;
27383;SDS011;14851;51.166;4.760;2023-02-20T00:21:43;20.40;;;13.38;;
27383;SDS011;14851;51.166;4.760;2023-02-20T00:24:09;20.83;;;13.93;;
27383;SDS011;14851;51.166;4.760;2023-02-20T00:26:35;19.70;;;13.93;;
27383;SDS011;14851;51.166;4.760;2023-02-20T00:29:01;19.65;;;13.68;;
27383;SDS011;14851;51.166;4.760;2023-02-20T00:31:27;18.23;;;13.00;;
27383;SDS011;14851;51.166;4.760;2023-02-20T00:33:53;21.00;;;12.70;;
27383;SDS011;14851;51.166;4.760;2023-02-20T00:36:19;23.35;;;13.10;;
27383;SDS011;14851;51.166;4.760;2023-02-20T00:38:45;21.73;;;13.90;;
27383;SDS011;14851;51.166;4.760;2023-02-20T00:41:12;20.00;;;13.75;;
27383;SDS011;14851;51.166;4.760;2023-02-20T00:43:40;22.30;;;12.63;;
27383;SDS011;14851;51.166;4.760;2023-02-20T00:46:06;19.70;;;12.82;;
27383;SDS011;14851;51.166;4.760;2023-02-20T00:48:35;20.95;;;13.57;;
27383;SDS011;14851;51.166;4.760;2023-02-20T00:51:19;20.83;;;12.60;;
27383;SDS011;14851;51.166;4.760;2023-02-20T00:53:45;21.27;;;13.40;;
27383;SDS011;14851;51.166;4.760;2023-02-20T00:56:14;20.48;;;13.10;;
27383;SDS011;14851;51.166;4.760;2023-02-20T00:58:39;24.80;;;13.15;;
27383;SDS011;14851;51.166;4.760;2023-02-20T01:01:06;20.00;;;13.10;;
27383;SDS011;14851;51.166;4.760;2023-02-20T01:03:32;22.13;;;12.75;;
27383;SDS011;14851;51.166;4.760;2023-02-20T01:06:00;24.13;;;13.00;;
27383;SDS011;14851;51.166;4.760;2023-02-20T01:08:26;22.70;;;13.07;;
27383;SDS011;14851;51.166;4.760;2023-02-20T01:10:52;20.38;;;11.68;;
27383;SDS011;14851;51.166;4.760;2023-02-20T01:13:18;21.13;;;12.85;;
27383;SDS011;14851;51.166;4.760;2023-02-20T01:15:44;22.52;;;12.68;;
27383;SDS011;14851;51.166;4.760;2023-02-20T01:18:10;19.98;;;12.15;;
27383;SDS011;14851;51.166;4.760;2023-02-20T01:20:36;23.15;;;11.85;;
27383;SDS011;14851;51.166;4.760;2023-02-20T01:23:02;22.65;;;13.30;;
27383;SDS011;14851;51.166;4.760;2023-02-20T01:25:28;17.27;;;11.50;;
27383;SDS011;14851;51.166;4.760;2023-02-20T01:27:54;18.65;;;10.93;;
27383;SDS011;14851;51.166;4.760;2023-02-20T01:30:20;23.33;;;12.50;;
27383;SDS011;14851;51.166;4.760;2023-02-20T01:32:46;21.40;;;12.63;;
27383;SDS011;14851;51.166;4.760;2023-02-20T01:35:13;21.48;;;11.68;;
27383;SDS011;14851;51.166;4.760;2023-02-20T01:37:40;25.38;;;12.70;;
27383;SDS011;14851;51.166;4.760;2023-02-20T01:40:06;23.10;;;12.20;;
27383;SDS011;14851;51.166;4.760;2023-02-20T01:42:33;22.02;;;12.45;;
27383;SDS011;14851;51.166;4.760;2023-02-20T01:47:44;30.00;;;13.65;;
27383;SDS011;14851;51.166;4.760;2023-02-20T01:50:14;22.73;;;13.20;;
27383;SDS011;14851;51.166;4.760;2023-02-20T01:52:42;21.92;;;13.68;;
27383;SDS011;14851;51.166;4.760;2023-02-20T01:55:12;25.35;;;13.88;;
27383;SDS011;14851;51.166;4.760;2023-02-20T01:57:42;21.38;;;14.40;;
27383;SDS011;14851;51.166;4.760;2023-02-20T02:00:15;26.17;;;15.27;;
27383;SDS011;14851;51.166;4.760;2023-02-20T02:02:49;23.45;;;15.35;;
27383;SDS011;14851;51.166;4.760;2023-02-20T02:05:20;30.80;;;17.10;;
27383;SDS011;14851;51.166;4.760;2023-02-20T02:07:52;28.25;;;17.40;;
27383;SDS011;14851;51.166;4.760;2023-02-20T02:10:24;27.92;;;17.05;;
27383;SDS011;14851;51.166;4.760;2023-02-20T02:13:01;33.28;;;17.08;;
27383;SDS011;14851;51.166;4.760;2023-02-20T02:15:28;24.05;;;16.25;;
27383;SDS011;14851;51.166;4.760;2023-02-20T02:18:02;29.52;;;17.55;;
27383;SDS011;14851;51.166;4.760;2023-02-20T02:41:56;25.15;;;16.98;;
27383;SDS011;14851;51.166;4.760;2023-02-20T02:44:36;29.65;;;18.50;;
27383;SDS011;14851;51.166;4.760;2023-02-20T02:47:32;32.88;;;17.38;;
27383;SDS011;14851;51.166;4.760;2023-02-20T02:49:59;31.08;;;17.63;;
27383;SDS011;14851;51.166;4.760;2023-02-20T02:52:30;25.88;;;17.27;;
27383;SDS011;14851;51.166;4.760;2023-02-20T02:55:14;33.35;;;18.35;;
27383;SDS011;14851;51.166;4.760;2023-02-20T02:57:52;26.85;;;16.80;;
27383;SDS011;14851;51.166;4.760;2023-02-20T03:00:22;33.17;;;17.73;;
27383;SDS011;14851;51.166;4.760;2023-02-20T03:03:04;24.45;;;17.15;;
27383;SDS011;14851;51.166;4.760;2023-02-20T03:06:00;30.02;;;17.60;;
27383;SDS011;14851;51.166;4.760;2023-02-20T03:08:35;25.50;;;17.02;;
27383;SDS011;14851;51.166;4.760;2023-02-20T03:11:12;26.15;;;17.17;;
27383;SDS011;14851;51.166;4.760;2023-02-20T03:13:54;25.83;;;15.75;;
27383;SDS011;14851;51.166;4.760;2023-02-20T03:17:37;28.63;;;16.52;;
27383;SDS011;14851;51.166;4.760;2023-02-20T03:19:58;33.47;;;16.52;;
27383;SDS011;14851;51.166;4.760;2023-02-20T03:22:34;26.15;;;16.27;;
27383;SDS011;14851;51.166;4.760;2023-02-20T03:25:10;22.55;;;15.02;;
27383;SDS011;14851;51.166;4.760;2023-02-20T03:27:43;23.67;;;14.77;;
27383;SDS011;14851;51.166;4.760;2023-02-20T03:33:18;26.33;;;14.52;;
27383;SDS011;14851;51.166;4.760;2023-02-20T03:36:09;25.80;;;14.52;;
27383;SDS011;14851;51.166;4.760;2023-02-20T03:39:00;25.08;;;14.30;;
27383;SDS011;14851;51.166;4.760;2023-02-20T03:41:48;23.00;;;13.77;;
27383;SDS011;14851;51.166;4.760;2023-02-20T03:44:37;24.67;;;14.95;;
27383;SDS011;14851;51.166;4.760;2023-02-20T03:47:03;25.23;;;14.43;;
27383;SDS011;14851;51.166;4.760;2023-02-20T03:49:37;27.33;;;16.02;;
27383;SDS011;14851;51.166;4.760;2023-02-20T03:52:07;29.83;;;16.65;;
27383;SDS011;14851;51.166;4.760;2023-02-20T03:54:38;29.00;;;16.70;;
27383;SDS011;14851;51.166;4.760;2023-02-20T03:57:06;28.50;;;17.98;;
27383;SDS011;14851;51.166;4.760;2023-02-20T03:59:41;33.38;;;19.23;;
27383;SDS011;14851;51.166;4.760;2023-02-20T04:02:16;39.70;;;19.55;;
27383;SDS011;14851;51.166;4.760;2023-02-20T04:04:48;33.00;;;19.95;;
27383;SDS011;14851;51.166;4.760;2023-02-20T04:07:19;33.42;;;20.38;;
27383;SDS011;14851;51.166;4.760;2023-02-20T04:09:57;37.85;;;19.80;;
27383;SDS011;14851;51.166;4.760;2023-02-20T04:12:28;35.13;;;20.30;;
27383;SDS011;14851;51.166;4.760;2023-02-20T04:14:58;36.40;;;21.40;;
27383;SDS011;14851;51.166;4.760;2023-02-20T04:17:30;33.05;;;20.42;;
27383;SDS011;14851;51.166;4.760;2023-02-20T04:20:03;37.75;;;20.65;;
27383;SDS011;14851;51.166;4.760;2023-02-20T04:22:34;33.38;;;19.88;;
27383;SDS011;14851;51.166;4.760;2023-02-20T04:28:14;35.47;;;18.50;;
27383;SDS011;14851;51.166;4.760;2023-02-20T04:30:49;29.85;;;18.20;;
27383;SDS011;14851;51.166;4.760;2023-02-20T04:33:16;35.63;;;18.90;;
27383;SDS011;14851;51.166;4.760;2023-02-20T04:35:44;30.60;;;17.65;;
27383;SDS011;14851;51.166;4.760;2023-02-20T04:38:11;30.67;;;17.15;;
27383;SDS011;14851;51.166;4.760;2023-02-20T04:40:37;25.48;;;14.77;;
27383;SDS011;14851;51.166;4.760;2023-02-20T04:43:04;32.53;;;15.23;;
27383;SDS011;14851;51.166;4.760;2023-02-20T04:45:30;27.33;;;14.57;;
27383;SDS011;14851;51.166;4.760;2023-02-20T04:47:56;32.17;;;15.82;;
27383;SDS011;14851;51.166;4.760;2023-02-20T04:50:24;35.55;;;17.55;;
27383;SDS011;14851;51.166;4.760;2023-02-20T04:52:52;25.52;;;15.05;;
27383;SDS011;14851;51.166;4.760;2023-02-20T04:55:19;26.05;;;13.77;;
27383;SDS011;14851;51.166;4.760;2023-02-20T04:57:47;25.50;;;14.10;;
27383;SDS011;14851;51.166;4.760;2023-02-20T05:00:14;30.92;;;13.10;;
27383;SDS011;14851;51.166;4.760;2023-02-20T05:02:46;24.05;;;12.98;;
27383;SDS011;14851;51.166;4.760;2023-02-20T05:05:19;26.65;;;13.38;;
27383;SDS011;14851;51.166;4.760;2023-02-20T05:07:53;23.00;;;12.23;;
27383;SDS011;14851;51.166;4.760;2023-02-20T05:10:26;21.77;;;12.07;;
27383;SDS011;14851;51.166;4.760;2023-02-20T05:12:53;28.60;;;13.00;;
27383;SDS011;14851;51.166;4.760;2023-02-20T05:15:20;22.25;;;11.95;;
27383;SDS011;14851;51.166;4.760;2023-02-20T05:17:46;22.50;;;10.75;;
27383;SDS011;14851;51.166;4.760;2023-02-20T05:20:14;26.05;;;11.07;;
27383;SDS011;14851;51.166;4.760;2023-02-20T05:22:41;19.48;;;9.95;;
27383;SDS011;14851;51.166;4.760;2023-02-20T05:25:09;23.10;;;10.10;;
27383;SDS011;14851;51.166;4.760;2023-02-20T05:27:35;20.92;;;9.68;;
27383;SDS011;14851;51.166;4.760;2023-02-20T05:30:01;24.60;;;10.05;;
27383;SDS011;14851;51.166;4.760;2023-02-20T05:32:29;20.42;;;10.02;;
27383;SDS011;14851;51.166;4.760;2023-02-20T05:34:55;28.27;;;11.13;;
27383;SDS011;14851;51.166;4.760;2023-02-20T05:37:22;20.27;;;10.13;;
27383;SDS011;14851;51.166;4.760;2023-02-20T05:39:49;19.30;;;9.77;;
27383;SDS011;14851;51.166;4.760;2023-02-20T05:42:16;19.80;;;9.32;;
27383;SDS011;14851;51.166;4.760;2023-02-20T05:44:45;18.70;;;9.27;;
27383;SDS011;14851;51.166;4.760;2023-02-20T05:47:14;19.02;;;9.25;;
27383;SDS011;14851;51.166;4.760;2023-02-20T05:49:42;20.90;;;8.73;;
27383;SDS011;14851;51.166;4.760;2023-02-20T05:52:10;23.00;;;9.45;;
27383;SDS011;14851;51.166;4.760;2023-02-20T05:54:39;17.75;;;8.65;;
27383;SDS011;14851;51.166;4.760;2023-02-20T05:57:08;21.25;;;8.40;;
27383;SDS011;14851;51.166;4.760;2023-02-20T05:59:36;15.40;;;7.85;;
27383;SDS011;14851;51.166;4.760;2023-02-20T06:02:02;17.10;;;8.30;;
27383;SDS011;14851;51.166;4.760;2023-02-20T06:04:32;18.33;;;7.95;;
27383;SDS011;14851;51.166;4.760;2023-02-20T06:06:58;20.10;;;8.00;;
27383;SDS011;14851;51.166;4.760;2023-02-20T06:09:24;18.73;;;6.82;;
27383;SDS011;14851;51.166;4.760;2023-02-20T06:11:52;19.30;;;7.40;;
27383;SDS011;14851;51.166;4.760;2023-02-20T06:14:22;17.75;;;7.68;;
27383;SDS011;14851;51.166;4.760;2023-02-20T06:16:49;20.15;;;7.75;;
27383;SDS011;14851;51.166;4.760;2023-02-20T06:19:18;15.23;;;7.70;;
27383;SDS011;14851;51.166;4.760;2023-02-20T06:21:50;20.40;;;8.20;;
27383;SDS011;14851;51.166;4.760;2023-02-20T06:24:17;14.98;;;7.65;;
27383;SDS011;14851;51.166;4.760;2023-02-20T06:26:46;20.50;;;7.85;;
27383;SDS011;14851;51.166;4.760;2023-02-20T06:29:14;17.38;;;7.25;;
27383;SDS011;14851;51.166;4.760;2023-02-20T06:31:41;19.10;;;8.07;;
27383;SDS011;14851;51.166;4.760;2023-02-20T06:34:07;16.85;;;6.78;;
27383;SDS011;14851;51.166;4.760;2023-02-20T06:36:34;15.73;;;6.85;;
27383;SDS011;14851;51.166;4.760;2023-02-20T06:39:03;16.10;;;7.50;;
27383;SDS011;14851;51.166;4.760;2023-02-20T06:41:30;12.55;;;6.68;;
27383;SDS011;14851;51.166;4.760;2023-02-20T06:43:56;17.15;;;7.07;;
27383;SDS011;14851;51.166;4.760;2023-02-20T06:46:24;15.73;;;6.45;;
27383;SDS011;14851;51.166;4.760;2023-02-20T06:48:52;16.37;;;7.20;;
27383;SDS011;14851;51.166;4.760;2023-02-20T06:51:20;16.55;;;7.00;;
27383;SDS011;14851;51.166;4.760;2023-02-20T06:53:51;15.98;;;7.60;;
27383;SDS011;14851;51.166;4.760;2023-02-20T06:56:20;16.80;;;7.95;;
27383;SDS011;14851;51.166;4.760;2023-02-20T06:58:49;13.73;;;7.70;;
27383;SDS011;14851;51.166;4.760;2023-02-20T07:01:16;19.92;;;8.10;;
27383;SDS011;14851;51.166;4.760;2023-02-20T07:03:45;17.17;;;7.38;;
27383;SDS011;14851;51.166;4.760;2023-02-20T07:06:12;13.90;;;7.78;;
27383;SDS011;14851;51.166;4.760;2023-02-20T07:08:39;22.75;;;7.43;;
27383;SDS011;14851;51.166;4.760;2023-02-20T07:11:05;19.75;;;7.95;;
27383;SDS011;14851;51.166;4.760;2023-02-20T07:13:31;17.90;;;7.55;;
27383;SDS011;14851;51.166;4.760;2023-02-20T07:15:57;18.70;;;9.02;;
27383;SDS011;14851;51.166;4.760;2023-02-20T07:18:23;17.27;;;8.38;;
27383;SDS011;14851;51.166;4.760;2023-02-20T07:20:51;22.45;;;9.13;;
27383;SDS011;14851;51.166;4.760;2023-02-20T07:23:18;17.45;;;8.57;;
27383;SDS011;14851;51.166;4.760;2023-02-20T07:25:44;19.33;;;8.35;;
27383;SDS011;14851;51.166;4.760;2023-02-20T07:28:12;19.13;;;8.35;;
27383;SDS011;14851;51.166;4.760;2023-02-20T07:30:41;18.27;;;8.47;;
27383;SDS011;14851;51.166;4.760;2023-02-20T07:33:08;18.38;;;8.85;;
27383;SDS011;14851;51.166;4.760;2023-02-20T07:35:34;17.35;;;9.13;;
27383;SDS011;14851;51.166;4.760;2023-02-20T07:38:03;19.13;;;8.38;;
27383;SDS011;14851;51.166;4.760;2023-02-20T07:40:29;16.60;;;9.18;;
27383;SDS011;14851;51.166;4.760;2023-02-20T07:42:56;17.15;;;8.70;;
27383;SDS011;14851;51.166;4.760;2023-02-20T07:45:21;17.92;;;8.55;;
27383;SDS011;14851;51.166;4.760;2023-02-20T07:47:48;18.83;;;9.35;;
27383;SDS011;14851;51.166;4.760;2023-02-20T07:50:14;20.20;;;9.65;;
27383;SDS011;14851;51.166;4.760;2023-02-20T07:52:41;15.98;;;8.45;;
27383;SDS011;14851;51.166;4.760;2023-02-20T07:55:08;18.02;;;9.32;;
27383;SDS011;14851;51.166;4.760;2023-02-20T07:57:34;17.30;;;9.48;;
27383;SDS011;14851;51.166;4.760;2023-02-20T08:00:03;20.35;;;8.68;;
27383;SDS011;14851;51.166;4.760;2023-02-20T08:02:39;18.13;;;9.13;;
27383;SDS011;14851;51.166;4.760;2023-02-20T08:05:05;16.20;;;9.80;;
27383;SDS011;14851;51.166;4.760;2023-02-20T08:07:31;16.75;;;9.23;;
27383;SDS011;14851;51.166;4.760;2023-02-20T08:09:57;18.23;;;9.30;;
27383;SDS011;14851;51.166;4.760;2023-02-20T08:12:25;16.70;;;9.38;;
27383;SDS011;14851;51.166;4.760;2023-02-20T08:14:51;21.92;;;9.95;;
27383;SDS011;14851;51.166;4.760;2023-02-20T08:17:17;17.85;;;9.48;;
27383;SDS011;14851;51.166;4.760;2023-02-20T08:19:43;18.95;;;9.98;;
27383;SDS011;14851;51.166;4.760;2023-02-20T08:22:09;19.10;;;9.75;;
27383;SDS011;14851;51.166;4.760;2023-02-20T08:24:37;19.58;;;9.40;;
27383;SDS011;14851;51.166;4.760;2023-02-20T08:27:04;19.05;;;9.25;;
27383;SDS011;14851;51.166;4.760;2023-02-20T08:29:30;21.20;;;9.50;;
27383;SDS011;14851;51.166;4.760;2023-02-20T08:31:56;21.23;;;9.77;;
27383;SDS011;14851;51.166;4.760;2023-02-20T08:34:22;18.65;;;9.68;;
27383;SDS011;14851;51.166;4.760;2023-02-20T08:36:48;23.17;;;10.13;;
27383;SDS011;14851;51.166;4.760;2023-02-20T08:39:14;24.45;;;10.60;;
27383;SDS011;14851;51.166;4.760;2023-02-20T08:41:44;19.42;;;9.93;;
27383;SDS011;14851;51.166;4.760;2023-02-20T08:44:11;16.63;;;9.27;;
27383;SDS011;14851;51.166;4.760;2023-02-20T08:46:37;19.90;;;9.48;;
27383;SDS011;14851;51.166;4.760;2023-02-20T08:49:09;18.05;;;10.18;;
27383;SDS011;14851;51.166;4.760;2023-02-20T08:51:35;19.70;;;9.32;;
27383;SDS011;14851;51.166;4.760;2023-02-20T08:54:00;18.23;;;9.20;;
27383;SDS011;14851;51.166;4.760;2023-02-20T08:56:28;21.20;;;9.77;;
27383;SDS011;14851;51.166;4.760;2023-02-20T08:58:54;16.67;;;9.40;;
27383;SDS011;14851;51.166;4.760;2023-02-20T09:01:20;18.02;;;9.50;;
27383;SDS011;14851;51.166;4.760;2023-02-20T09:03:45;20.20;;;10.27;;
27383;SDS011;14851;51.166;4.760;2023-02-20T09:06:15;19.45;;;10.02;;
27383;SDS011;14851;51.166;4.760;2023-02-20T09:08:41;17.60;;;8.85;;
27383;SDS011;14851;51.166;4.760;2023-02-20T09:11:07;16.13;;;9.60;;
27383;SDS011;14851;51.166;4.760;2023-02-20T09:13:33;20.80;;;9.57;;
27383;SDS011;14851;51.166;4.760;2023-02-20T09:15:59;17.60;;;9.85;;
27383;SDS011;14851;51.166;4.760;2023-02-20T09:18:27;21.63;;;10.02;;
27383;SDS011;14851;51.166;4.760;2023-02-20T09:20:52;20.45;;;10.63;;
27383;SDS011;14851;51.166;4.760;2023-02-20T09:23:19;17.73;;;11.27;;
27383;SDS011;14851;51.166;4.760;2023-02-20T09:25:48;20.57;;;10.40;;
27383;SDS011;14851;51.166;4.760;2023-02-20T09:28:15;17.15;;;9.55;;
27383;SDS011;14851;51.166;4.760;2023-02-20T09:30:41;23.65;;;10.50;;
27383;SDS011;14851;51.166;4.760;2023-02-20T09:33:06;22.15;;;10.05;;
27383;SDS011;14851;51.166;4.760;2023-02-20T09:35:33;24.40;;;12.90;;
27383;SDS011;14851;51.166;4.760;2023-02-20T09:38:01;20.88;;;12.05;;
27383;SDS011;14851;51.166;4.760;2023-02-20T09:40:28;21.70;;;9.77;;
27383;SDS011;14851;51.166;4.760;2023-02-20T09:45:47;19.10;;;10.30;;
27383;SDS011;14851;51.166;4.760;2023-02-20T09:48:32;21.95;;;11.27;;
27383;SDS011;14851;51.166;4.760;2023-02-20T09:51:24;18.02;;;11.43;;
27383;SDS011;14851;51.166;4.760;2023-02-20T09:56:57;17.27;;;10.23;;
27383;SDS011;14851;51.166;4.760;2023-02-20T09:59:24;16.35;;;11.38;;
27383;SDS011;14851;51.166;4.760;2023-02-20T10:02:02;20.02;;;10.57;;
27383;SDS011;14851;51.166;4.760;2023-02-20T10:04:52;20.52;;;10.35;;
27383;SDS011;14851;51.166;4.760;2023-02-20T10:07:35;18.80;;;10.45;;
27383;SDS011;14851;51.166;4.760;2023-02-20T10:15:53;22.73;;;10.80;;
27383;SDS011;14851;51.166;4.760;2023-02-20T10:26:45;22.02;;;10.35;;
27383;SDS011;14851;51.166;4.760;2023-02-20T10:31:57;18.25;;;9.25;;
27383;SDS011;14851;51.166;4.760;2023-02-20T10:37:42;19.95;;;10.13;;
27383;SDS011;14851;51.166;4.760;2023-02-20T10:40:13;16.90;;;9.80;;
27383;SDS011;14851;51.166;4.760;2023-02-20T10:45:25;18.75;;;9.80;;
27383;SDS011;14851;51.166;4.760;2023-02-20T10:47:57;19.95;;;9.20;;
27383;SDS011;14851;51.166;4.760;2023-02-20T10:50:36;18.98;;;9.80;;
27383;SDS011;14851;51.166;4.760;2023-02-20T10:53:15;17.52;;;9.38;;
27383;SDS011;14851;51.166;4.760;2023-02-20T10:56:02;18.67;;;9.60;;
27383;SDS011;14851;51.166;4.760;2023-02-20T11:01:45;19.55;;;9.30;;
27383;SDS011;14851;51.166;4.760;2023-02-20T11:06:44;18.38;;;9.93;;
27383;SDS011;14851;51.166;4.760;2023-02-20T11:09:16;20.88;;;10.32;;
27383;SDS011;14851;51.166;4.760;2023-02-20T11:11:44;19.08;;;9.45;;
27383;SDS011;14851;51.166;4.760;2023-02-20T11:14:13;14.82;;;9.40;;
27383;SDS011;14851;51.166;4.760;2023-02-20T11:19:22;18.55;;;10.90;;
27383;SDS011;14851;51.166;4.760;2023-02-20T11:21:56;18.52;;;11.73;;
27383;SDS011;14851;51.166;4.760;2023-02-20T11:27:33;19.65;;;11.60;;
27383;SDS011;14851;51.166;4.760;2023-02-20T11:35:20;21.33;;;13.77;;
27383;SDS011;14851;51.166;4.760;2023-02-20T11:37:49;22.92;;;14.20;;
27383;SDS011;14851;51.166;4.760;2023-02-20T11:45:45;22.67;;;14.95;;
27383;SDS011;14851;51.166;4.760;2023-02-20T11:48:15;21.38;;;14.07;;
27383;SDS011;14851;51.166;4.760;2023-02-20T11:50:59;25.08;;;14.73;;
27383;SDS011;14851;51.166;4.760;2023-02-20T11:53:27;20.65;;;14.30;;
27383;SDS011;14851;51.166;4.760;2023-02-20T11:58:35;19.35;;;14.50;;
27383;SDS011;14851;51.166;4.760;2023-02-20T12:01:02;21.75;;;15.15;;
27383;SDS011;14851;51.166;4.760;2023-02-20T12:03:29;23.08;;;15.13;;
27383;SDS011;14851;51.166;4.760;2023-02-20T12:05:59;17.85;;;14.38;;
27383;SDS011;14851;51.166;4.760;2023-02-20T12:08:55;21.73;;;15.18;;
27383;SDS011;14851;51.166;4.760;2023-02-20T12:11:25;21.23;;;12.90;;
27383;SDS011;14851;51.166;4.760;2023-02-20T12:13:53;20.23;;;12.43;;
27383;SDS011;14851;51.166;4.760;2023-02-20T12:16:27;17.40;;;12.40;;
27383;SDS011;14851;51.166;4.760;2023-02-20T12:35:49;15.98;;;10.95;;
27383;SDS011;14851;51.166;4.760;2023-02-20T12:57:56;15.32;;;9.73;;
27383;SDS011;14851;51.166;4.760;2023-02-20T13:03:22;16.05;;;10.85;;
27383;SDS011;14851;51.166;4.760;2023-02-20T13:06:07;14.25;;;10.52;;
27383;SDS011;14851;51.166;4.760;2023-02-20T13:08:38;17.55;;;9.57;;
27383;SDS011;14851;51.166;4.760;2023-02-20T13:11:18;17.08;;;8.98;;
27383;SDS011;14851;51.166;4.760;2023-02-20T13:21:45;12.85;;;7.07;;
27383;SDS011;14851;51.166;4.760;2023-02-20T13:29:15;13.18;;;7.32;;
27383;SDS011;14851;51.166;4.760;2023-02-20T13:31:44;15.02;;;7.72;;
27383;SDS011;14851;51.166;4.760;2023-02-20T13:36:44;12.10;;;7.03;;
27383;SDS011;14851;51.166;4.760;2023-02-20T13:55:21;16.95;;;7.45;;
27383;SDS011;14851;51.166;4.760;2023-02-20T14:03:00;18.15;;;8.30;;
27383;SDS011;14851;51.166;4.760;2023-02-20T14:05:34;13.05;;;7.22;;
27383;SDS011;14851;51.166;4.760;2023-02-20T14:07:59;14.55;;;7.50;;
27383;SDS011;14851;51.166;4.760;2023-02-20T14:10:27;13.10;;;8.15;;
27383;SDS011;14851;51.166;4.760;2023-02-20T14:12:58;12.98;;;6.95;;
27383;SDS011;14851;51.166;4.760;2023-02-20T14:15:30;14.15;;;7.35;;
27383;SDS011;14851;51.166;4.760;2023-02-20T14:17:58;13.80;;;7.57;;
27383;SDS011;14851;51.166;4.760;2023-02-20T14:20:26;14.68;;;7.13;;
27383;SDS011;14851;51.166;4.760;2023-02-20T14:25:34;12.55;;;6.32;;
27383;SDS011;14851;51.166;4.760;2023-02-20T14:28:04;13.32;;;7.10;;
27383;SDS011;14851;51.166;4.760;2023-02-20T14:30:38;15.40;;;6.40;;
27383;SDS011;14851;51.166;4.760;2023-02-20T14:33:08;13.77;;;6.28;;
27383;SDS011;14851;51.166;4.760;2023-02-20T14:35:56;11.32;;;6.60;;
27383;SDS011;14851;51.166;4.760;2023-02-20T14:41:39;13.60;;;6.93;;
27383;SDS011;14851;51.166;4.760;2023-02-20T14:44:23;10.68;;;6.53;;
27383;SDS011;14851;51.166;4.760;2023-02-20T14:46:50;12.13;;;7.13;;
27383;SDS011;14851;51.166;4.760;2023-02-20T14:49:26;13.90;;;7.13;;
27383;SDS011;14851;51.166;4.760;2023-02-20T14:54:56;9.27;;;6.93;;
27383;SDS011;14851;51.166;4.760;2023-02-20T14:57:22;11.32;;;6.80;;
27383;SDS011;14851;51.166;4.760;2023-02-20T14:59:51;15.30;;;7.00;;
27383;SDS011;14851;51.166;4.760;2023-02-20T15:02:40;13.68;;;7.78;;
27383;SDS011;14851;51.166;4.760;2023-02-20T15:05:10;10.55;;;6.65;;
27383;SDS011;14851;51.166;4.760;2023-02-20T15:07:40;13.68;;;6.70;;
27383;SDS011;14851;51.166;4.760;2023-02-20T15:13:09;13.10;;;6.25;;
27383;SDS011;14851;51.166;4.760;2023-02-20T15:15:40;13.57;;;6.32;;
27383;SDS011;14851;51.166;4.760;2023-02-20T15:18:13;15.20;;;6.35;;
27383;SDS011;14851;51.166;4.760;2023-02-20T15:23:28;12.20;;;7.00;;
27383;SDS011;14851;51.166;4.760;2023-02-20T15:29:17;10.20;;;5.88;;
27383;SDS011;14851;51.166;4.760;2023-02-20T15:31:57;11.00;;;5.95;;
27383;SDS011;14851;51.166;4.760;2023-02-20T15:34:29;14.48;;;6.57;;
27383;SDS011;14851;51.166;4.760;2023-02-20T15:39:37;16.58;;;6.18;;
27383;SDS011;14851;51.166;4.760;2023-02-20T15:42:08;12.55;;;6.10;;
27383;SDS011;14851;51.166;4.760;2023-02-20T15:44:35;12.18;;;6.10;;
27383;SDS011;14851;51.166;4.760;2023-02-20T15:47:01;12.07;;;6.50;;
27383;SDS011;14851;51.166;4.760;2023-02-20T15:49:27;14.93;;;6.65;;
27383;SDS011;14851;51.166;4.760;2023-02-20T15:51:52;14.35;;;6.85;;
27383;SDS011;14851;51.166;4.760;2023-02-20T15:54:21;16.40;;;7.15;;
27383;SDS011;14851;51.166;4.760;2023-02-20T15:56:46;13.13;;;7.45;;
27383;SDS011;14851;51.166;4.760;2023-02-20T15:59:12;15.15;;;7.65;;
27383;SDS011;14851;51.166;4.760;2023-02-20T16:01:41;13.98;;;9.00;;
27383;SDS011;14851;51.166;4.760;2023-02-20T16:04:10;19.83;;;8.80;;
27383;SDS011;14851;51.166;4.760;2023-02-20T16:06:39;13.02;;;8.18;;
27383;SDS011;14851;51.166;4.760;2023-02-20T16:09:06;13.63;;;8.35;;
27383;SDS011;14851;51.166;4.760;2023-02-20T16:11:39;14.02;;;9.65;;
27383;SDS011;14851;51.166;4.760;2023-02-20T16:14:08;18.70;;;10.02;;
27383;SDS011;14851;51.166;4.760;2023-02-20T16:16:43;22.92;;;9.98;;
27383;SDS011;14851;51.166;4.760;2023-02-20T16:19:14;18.17;;;10.10;;
27383;SDS011;14851;51.166;4.760;2023-02-20T16:21:42;18.33;;;10.10;;
27383;SDS011;14851;51.166;4.760;2023-02-20T16:24:11;15.52;;;9.65;;
27383;SDS011;14851;51.166;4.760;2023-02-20T16:26:38;14.63;;;9.57;;
27383;SDS011;14851;51.166;4.760;2023-02-20T16:29:20;27.52;;;13.95;;
27383;SDS011;14851;51.166;4.760;2023-02-20T16:34:22;16.88;;;9.80;;
27383;SDS011;14851;51.166;4.760;2023-02-20T16:36:50;13.73;;;9.23;;
27383;SDS011;14851;51.166;4.760;2023-02-20T16:39:16;18.67;;;10.45;;
27383;SDS011;14851;51.166;4.760;2023-02-20T16:41:43;19.77;;;11.25;;
27383;SDS011;14851;51.166;4.760;2023-02-20T16:44:13;16.88;;;9.65;;
27383;SDS011;14851;51.166;4.760;2023-02-20T16:46:47;17.70;;;11.35;;
27383;SDS011;14851;51.166;4.760;2023-02-20T16:49:13;15.70;;;10.10;;
27383;SDS011;14851;51.166;4.760;2023-02-20T16:51:43;18.00;;;9.48;;
27383;SDS011;14851;51.166;4.760;2023-02-20T16:54:23;17.60;;;10.40;;
27383;SDS011;14851;51.166;4.760;2023-02-20T16:56:49;18.15;;;10.32;;
27383;SDS011;14851;51.166;4.760;2023-02-20T16:59:17;16.52;;;10.65;;
27383;SDS011;14851;51.166;4.760;2023-02-20T17:01:43;15.10;;;10.95;;
27383;SDS011;14851;51.166;4.760;2023-02-20T17:04:09;18.30;;;11.48;;
27383;SDS011;14851;51.166;4.760;2023-02-20T17:06:40;16.58;;;10.20;;
27383;SDS011;14851;51.166;4.760;2023-02-20T17:09:05;18.85;;;9.80;;
27383;SDS011;14851;51.166;4.760;2023-02-20T17:11:34;16.38;;;9.70;;
27383;SDS011;14851;51.166;4.760;2023-02-20T17:14:00;12.95;;;9.27;;
27383;SDS011;14851;51.166;4.760;2023-02-20T17:16:26;16.73;;;10.38;;
27383;SDS011;14851;51.166;4.760;2023-02-20T17:18:52;14.25;;;10.38;;
27383;SDS011;14851;51.166;4.760;2023-02-20T17:21:17;14.77;;;10.38;;
27383;SDS011;14851;51.166;4.760;2023-02-20T17:23:43;14.40;;;9.57;;
27383;SDS011;14851;51.166;4.760;2023-02-20T17:26:11;15.27;;;10.05;;
27383;SDS011;14851;51.166;4.760;2023-02-20T17:28:37;13.70;;;10.05;;
27383;SDS011;14851;51.166;4.760;2023-02-20T17:31:04;12.15;;;10.13;;
27383;SDS011;14851;51.166;4.760;2023-02-20T17:33:30;14.75;;;9.90;;
27383;SDS011;14851;51.166;4.760;2023-02-20T17:35:56;15.05;;;9.25;;
27383;SDS011;14851;51.166;4.760;2023-02-20T17:38:22;16.13;;;9.82;;
27383;SDS011;14851;51.166;4.760;2023-02-20T17:40:48;14.30;;;9.75;;
27383;SDS011;14851;51.166;4.760;2023-02-20T17:43:14;12.30;;;8.02;;
27383;SDS011;14851;51.166;4.760;2023-02-20T17:45:40;12.30;;;8.80;;
27383;SDS011;14851;51.166;4.760;2023-02-20T17:48:06;18.08;;;10.32;;